Time,TemperatureF,DewpointF,PressureIn,WindDirection,WindDirectionDegrees,WindSpeedMPH,WindSpeedGustMPH,Humidity,HourlyPrecipIn,Conditions,Clouds,dailyrainin,SolarRadiationWatts/m^2,SoftwareType,DateUTC
2013-04-19 00:01:00,69.3,60.7,29.97,South,177,3.0,3.0,74,0.00,,,0.00,0.00,VWS V14.01,2013-04-19 04:01:00,
2013-04-19 00:06:00,69.1,60.8,29.96,SE,129,8.0,8.0,75,0.00,,,0.00,0.00,VWS V14.01,2013-04-19 04:06:00,
2013-04-19 00:11:00,68.9,61.0,29.96,SE,135,1.0,2.0,76,0.00,,,0.00,0.00,VWS V14.01,2013-04-19 04:11:00,
2013-04-19 00:16:00,68.8,60.9,29.96,SSE,155,1.0,6.0,76,0.00,,,0.00,0.00,VWS V14.01,2013-04-19 04:16:00,
2013-04-19 00:21:00,68.6,60.7,29.96,South,173,2.0,7.0,76,0.00,,,0.00,0.00,VWS V14.01,2013-04-19 04:21:00,
2013-04-19 00:26:00,68.5,61.0,29.96,South,182,3.0,4.0,77,0.00,,,0.00,0.00,VWS V14.01,2013-04-19 04:26:00,
2013-04-19 00:31:00,68.4,61.3,29.95,SSE,159,5.0,8.0,78,0.00,,,0.00,0.00,VWS V14.01,2013-04-19 04:31:00,
2013-04-19 00:36:00,68.3,61.2,29.95,SE,141,5.0,5.0,78,0.00,,,0.00,0.00,VWS V14.01,2013-04-19 04:36:00,
2013-04-19 00:41:00,68.1,61.0,29.95,ESE,116,5.0,5.0,78,0.00,,,0.00,0.00,VWS V14.01,2013-04-19 04:41:00,
2013-04-19 00:46:00,68.0,61.2,29.95,SSE,154,5.0,10.0,79,0.00,,,0.00,0.00,VWS V14.01,2013-04-19 04:46:00,
2013-04-19 00:51:00,67.9,61.2,29.95,SE,142,5.0,7.0,79,0.00,,,0.00,0.00,VWS V14.01,2013-04-19 04:51:00,
2013-04-19 00:56:00,67.9,61.5,29.95,SE,138,11.0,11.0,80,0.00,,,0.00,0.00,VWS V14.01,2013-04-19 04:56:00,
2013-04-19 01:01:00,67.8,61.4,29.95,SE,144,0.0,5.0,80,0.00,,,0.00,0.00,VWS V14.01,2013-04-19 05:01:00,
2013-04-19 01:06:00,67.8,61.8,29.95,SSE,158,2.0,5.0,81,0.00,,,0.00,0.00,VWS V14.01,2013-04-19 05:06:00,
2013-04-19 01:11:00,67.7,61.7,29.95,South,186,1.0,2.0,81,0.00,,,0.00,0.00,VWS V14.01,2013-04-19 05:11:00,
2013-04-19 01:16:00,67.7,61.7,29.95,SSE,153,4.0,8.0,81,0.00,,,0.00,0.00,VWS V14.01,2013-04-19 05:16:00,
2013-04-19 01:21:00,67.6,61.9,29.94,SE,144,1.0,1.0,82,0.00,,,0.00,0.00,VWS V14.01,2013-04-19 05:21:00,
2013-04-19 01:26:00,67.5,61.8,29.94,SE,134,8.0,8.0,82,0.00,,,0.00,0.00,VWS V14.01,2013-04-19 05:26:00,
2013-04-19 01:31:00,67.5,62.2,29.94,SE,138,12.0,13.0,83,0.00,,,0.00,0.00,VWS V14.01,2013-04-19 05:31:00,
2013-04-19 01:36:00,67.4,62.1,29.93,SSE,157,4.0,6.0,83,0.00,,,0.00,0.00,VWS V14.01,2013-04-19 05:36:00,
2013-04-19 01:41:00,67.3,62.0,29.93,SSE,153,4.0,4.0,83,0.00,,,0.00,0.00,VWS V14.01,2013-04-19 05:41:00,
2013-04-19 01:46:00,67.3,62.0,29.93,SE,144,8.0,9.0,83,0.00,,,0.00,0.00,VWS V14.01,2013-04-19 05:46:00,
2013-04-19 01:51:00,67.2,62.2,29.93,SE,144,7.0,9.0,84,0.00,,,0.00,0.00,VWS V14.01,2013-04-19 05:51:00,
2013-04-19 01:56:00,67.2,62.2,29.93,SSE,158,1.0,2.0,84,0.00,,,0.00,0.00,VWS V14.01,2013-04-19 05:56:00,
2013-04-19 02:01:00,67.1,62.1,29.93,SE,128,6.0,6.0,84,0.00,,,0.00,0.00,VWS V14.01,2013-04-19 06:01:00,
2013-04-19 02:06:00,67.1,62.1,29.92,South,176,1.0,2.0,84,0.00,,,0.00,0.00,VWS V14.01,2013-04-19 06:06:00,
2013-04-19 02:11:00,67.0,62.0,29.92,SSE,159,0.0,1.0,84,0.00,,,0.00,0.00,VWS V14.01,2013-04-19 06:11:00,
2013-04-19 02:16:00,67.0,62.0,29.92,South,180,1.0,2.0,84,0.00,,,0.00,0.00,VWS V14.01,2013-04-19 06:16:00,
2013-04-19 02:21:00,67.0,62.0,29.92,SSE,149,6.0,6.0,84,0.00,,,0.00,0.00,VWS V14.01,2013-04-19 06:21:00,
2013-04-19 02:26:00,67.0,62.3,29.92,SSE,153,2.0,2.0,85,0.00,,,0.00,0.00,VWS V14.01,2013-04-19 06:26:00,
2013-04-19 02:31:00,66.9,61.9,29.92,ESE,119,5.0,7.0,84,0.00,,,0.00,0.00,VWS V14.01,2013-04-19 06:31:00,
2013-04-19 02:36:00,66.9,62.2,29.91,SE,128,5.0,6.0,85,0.00,,,0.00,0.00,VWS V14.01,2013-04-19 06:36:00,
2013-04-19 02:41:00,66.9,62.2,29.91,SSE,154,1.0,3.0,85,0.00,,,0.00,0.00,VWS V14.01,2013-04-19 06:41:00,
2013-04-19 02:46:00,66.9,62.2,29.91,SE,146,0.0,1.0,85,0.00,,,0.00,0.00,VWS V14.01,2013-04-19 06:46:00,
2013-04-19 02:51:00,66.8,62.2,29.91,SE,136,3.0,6.0,85,0.00,,,0.00,0.00,VWS V14.01,2013-04-19 06:51:00,
2013-04-19 02:56:00,66.8,62.2,29.90,South,176,3.0,6.0,85,0.00,,,0.00,0.00,VWS V14.01,2013-04-19 06:56:00,
2013-04-19 03:01:00,66.8,62.2,29.91,South,180,1.0,1.0,85,0.00,,,0.00,0.00,VWS V14.01,2013-04-19 07:01:00,
2013-04-19 03:06:00,66.8,62.2,29.90,West,259,1.0,4.0,85,0.00,,,0.00,0.00,VWS V14.01,2013-04-19 07:06:00,
2013-04-19 03:11:00,66.8,62.2,29.90,ESE,123,2.0,3.0,85,0.00,,,0.00,0.00,VWS V14.01,2013-04-19 07:11:00,
2013-04-19 03:16:00,66.8,62.2,29.90,SSE,155,0.0,1.0,85,0.00,,,0.00,0.00,VWS V14.01,2013-04-19 07:16:00,
2013-04-19 03:21:00,66.7,62.0,29.89,South,180,2.0,2.0,85,0.00,,,0.00,0.00,VWS V14.01,2013-04-19 07:21:00,
2013-04-19 03:26:00,66.8,62.2,29.89,SE,126,4.0,4.0,85,0.00,,,0.00,0.00,VWS V14.01,2013-04-19 07:26:00,
2013-04-19 03:31:00,66.8,62.2,29.89,SSW,207,0.0,1.0,85,0.00,,,0.00,0.00,VWS V14.01,2013-04-19 07:31:00,
2013-04-19 03:36:00,66.8,62.2,29.89,SSE,148,5.0,7.0,85,0.00,,,0.00,0.00,VWS V14.01,2013-04-19 07:36:00,
2013-04-19 03:41:00,66.8,62.2,29.88,SE,138,4.0,5.0,85,0.00,,,0.00,0.00,VWS V14.01,2013-04-19 07:41:00,
2013-04-19 03:46:00,66.8,62.2,29.88,SSE,157,2.0,2.0,85,0.00,,,0.00,0.00,VWS V14.01,2013-04-19 07:46:00,
2013-04-19 03:51:00,66.8,62.2,29.89,SSE,150,0.0,1.0,85,0.00,,,0.00,0.00,VWS V14.01,2013-04-19 07:51:00,
2013-04-19 03:56:00,66.7,62.0,29.88,SSE,156,2.0,2.0,85,0.00,,,0.00,0.00,VWS V14.01,2013-04-19 07:56:00,
2013-04-19 04:01:00,66.8,62.2,29.88,SSE,152,3.0,3.0,85,0.00,,,0.00,0.00,VWS V14.01,2013-04-19 08:01:00,
2013-04-19 04:06:00,66.7,62.4,29.87,SE,125,6.0,6.0,86,0.00,,,0.00,0.00,VWS V14.01,2013-04-19 08:06:00,
2013-04-19 04:11:00,66.7,62.4,29.87,South,176,4.0,4.0,86,0.00,,,0.00,0.00,VWS V14.01,2013-04-19 08:11:00,
2013-04-19 04:16:00,66.7,62.4,29.87,SSE,153,5.0,5.0,86,0.00,,,0.00,0.00,VWS V14.01,2013-04-19 08:16:00,
2013-04-19 04:21:00,66.7,62.4,29.87,SE,140,1.0,4.0,86,0.00,,,0.00,0.00,VWS V14.01,2013-04-19 08:21:00,
2013-04-19 04:26:00,66.7,62.4,29.87,SSE,167,1.0,2.0,86,0.00,,,0.00,0.00,VWS V14.01,2013-04-19 08:26:00,
2013-04-19 04:31:00,66.7,62.4,29.87,SW,227,2.0,2.0,86,0.00,,,0.00,0.00,VWS V14.01,2013-04-19 08:31:00,
2013-04-19 04:36:00,66.7,62.4,29.87,South,188,0.0,2.0,86,0.00,,,0.00,0.00,VWS V14.01,2013-04-19 08:36:00,
2013-04-19 04:41:00,66.7,62.4,29.87,South,176,0.0,1.0,86,0.00,,,0.00,0.00,VWS V14.01,2013-04-19 08:41:00,
2013-04-19 04:46:00,66.7,62.4,29.87,SSE,154,3.0,3.0,86,0.00,,,0.00,0.00,VWS V14.01,2013-04-19 08:46:00,
2013-04-19 04:51:00,66.7,62.4,29.86,SE,140,5.0,5.0,86,0.00,,,0.00,0.00,VWS V14.01,2013-04-19 08:51:00,
2013-04-19 04:56:00,66.6,62.3,29.86,SSE,150,3.0,3.0,86,0.00,,,0.00,0.00,VWS V14.01,2013-04-19 08:56:00,
2013-04-19 05:01:00,66.7,62.4,29.86,SE,134,3.0,5.0,86,0.00,,,0.00,0.00,VWS V14.01,2013-04-19 09:01:00,
2013-04-19 05:06:00,66.7,62.4,29.86,SE,127,2.0,2.0,86,0.00,,,0.00,0.00,VWS V14.01,2013-04-19 09:06:00,
2013-04-19 05:11:00,66.7,62.4,29.85,South,176,2.0,3.0,86,0.00,,,0.00,0.00,VWS V14.01,2013-04-19 09:11:00,
2013-04-19 05:16:00,66.7,62.4,29.85,SW,229,0.0,2.0,86,0.00,,,0.00,0.00,VWS V14.01,2013-04-19 09:16:00,
2013-04-19 05:21:00,66.7,62.4,29.85,SSE,148,3.0,7.0,86,0.00,,,0.00,0.00,VWS V14.01,2013-04-19 09:21:00,
2013-04-19 05:26:00,66.7,62.4,29.85,SE,129,2.0,2.0,86,0.00,,,0.00,0.00,VWS V14.01,2013-04-19 09:26:00,
2013-04-19 05:31:00,66.7,62.4,29.85,ENE,73,2.0,2.0,86,0.00,,,0.00,0.00,VWS V14.01,2013-04-19 09:31:00,
2013-04-19 05:36:00,66.7,62.4,29.85,SSE,153,0.0,0.0,86,0.00,,,0.00,0.00,VWS V14.01,2013-04-19 09:36:00,
2013-04-19 05:41:00,66.7,62.7,29.85,SSE,162,0.0,0.0,87,0.00,,,0.00,0.00,VWS V14.01,2013-04-19 09:41:00,
2013-04-19 05:46:00,66.6,62.6,29.85,SSE,161,0.0,1.0,87,0.00,,,0.00,0.00,VWS V14.01,2013-04-19 09:46:00,
2013-04-19 05:51:00,66.6,62.6,29.84,SE,136,1.0,2.0,87,0.00,,,0.00,0.00,VWS V14.01,2013-04-19 09:51:00,
2013-04-19 05:56:00,66.6,62.6,29.84,ESE,114,4.0,4.0,87,0.00,,,0.00,0.00,VWS V14.01,2013-04-19 09:56:00,
2013-04-19 06:01:00,66.6,62.6,29.84,South,179,0.0,0.0,87,0.00,,,0.00,0.00,VWS V14.01,2013-04-19 10:01:00,
2013-04-19 06:06:00,66.6,62.6,29.84,ESE,118,4.0,4.0,87,0.00,,,0.00,0.00,VWS V14.01,2013-04-19 10:06:00,
2013-04-19 06:11:00,66.6,62.6,29.84,ESE,110,4.0,4.0,87,0.00,,,0.00,0.00,VWS V14.01,2013-04-19 10:11:00,
2013-04-19 06:15:00,66.5,62.5,29.84,ESE,121,3.0,3.0,87,0.00,,,0.00,0.00,VWS V14.01,2013-04-19 10:15:00,
2013-04-19 06:20:00,66.6,62.6,29.85,ESE,119,1.0,1.0,87,0.00,,,0.00,0.00,VWS V14.01,2013-04-19 10:20:00,
2013-04-19 06:25:00,66.6,62.6,29.85,SE,141,1.0,1.0,87,0.00,,,0.00,0.00,VWS V14.01,2013-04-19 10:25:00,
2013-04-19 06:30:00,66.6,62.6,29.85,South,189,3.0,4.0,87,0.00,,,0.00,0.00,VWS V14.01,2013-04-19 10:30:00,
2013-04-19 06:36:00,66.7,62.7,29.85,SSE,148,0.0,1.0,87,0.00,,,0.00,0.00,VWS V14.01,2013-04-19 10:36:00,
2013-04-19 06:40:00,66.7,62.7,29.85,SSE,152,4.0,4.0,87,0.00,,,0.00,0.00,VWS V14.01,2013-04-19 10:40:00,
2013-04-19 06:45:00,66.7,62.7,29.85,NNW,338,0.0,0.0,87,0.00,,,0.00,0.00,VWS V14.01,2013-04-19 10:45:00,
2013-04-19 06:50:00,66.7,62.7,29.85,SE,132,5.0,5.0,87,0.00,,,0.00,0.00,VWS V14.01,2013-04-19 10:50:00,
2013-04-19 06:55:00,66.7,62.7,29.84,SSE,149,1.0,1.0,87,0.00,,,0.00,0.00,VWS V14.01,2013-04-19 10:55:00,
2013-04-19 07:00:00,66.8,62.8,29.84,SSE,162,2.0,3.0,87,0.00,,,0.00,5.00,VWS V14.01,2013-04-19 11:00:00,
2013-04-19 07:05:00,66.8,62.8,29.84,SSE,167,8.0,8.0,87,0.00,,,0.00,7.00,VWS V14.01,2013-04-19 11:05:00,
2013-04-19 07:10:00,66.8,62.8,29.84,East,90,2.0,2.0,87,0.00,,,0.00,11.00,VWS V14.01,2013-04-19 11:10:00,
2013-04-19 07:15:00,66.8,62.8,29.84,South,182,1.0,3.0,87,0.00,,,0.00,14.00,VWS V14.01,2013-04-19 11:15:00,
2013-04-19 07:20:00,66.9,62.9,29.84,South,175,0.0,3.0,87,0.00,,,0.00,19.00,VWS V14.01,2013-04-19 11:20:00,
2013-04-19 07:25:00,66.9,62.9,29.84,South,175,3.0,8.0,87,0.00,,,0.00,21.00,VWS V14.01,2013-04-19 11:25:00,
2013-04-19 07:30:00,67.0,63.0,29.84,ESE,123,3.0,3.0,87,0.00,,,0.00,14.00,VWS V14.01,2013-04-19 11:30:00,
2013-04-19 07:35:00,67.0,63.0,29.85,SSW,201,2.0,5.0,87,0.00,,,0.00,19.00,VWS V14.01,2013-04-19 11:35:00,
2013-04-19 07:40:00,67.0,63.0,29.85,SE,139,4.0,4.0,87,0.00,,,0.00,16.00,VWS V14.01,2013-04-19 11:40:00,
2013-04-19 07:45:00,67.0,63.0,29.85,SE,133,1.0,12.0,87,0.00,,,0.00,19.00,VWS V14.01,2013-04-19 11:45:00,
2013-04-19 07:50:00,67.0,63.0,29.84,South,175,1.0,6.0,87,0.00,,,0.00,26.00,VWS V14.01,2013-04-19 11:50:00,
2013-04-19 07:55:00,67.1,63.1,29.85,South,179,3.0,5.0,87,0.00,,,0.00,39.00,VWS V14.01,2013-04-19 11:55:00,
2013-04-19 08:00:00,67.1,63.1,29.85,SE,127,8.0,8.0,87,0.00,,,0.00,58.00,VWS V14.01,2013-04-19 12:00:00,
2013-04-19 08:05:00,67.2,63.2,29.85,SSE,148,3.0,5.0,87,0.00,,,0.00,74.00,VWS V14.01,2013-04-19 12:05:00,
2013-04-19 08:10:00,67.3,63.3,29.85,SSE,161,4.0,7.0,87,0.00,,,0.00,67.00,VWS V14.01,2013-04-19 12:10:00,
2013-04-19 08:15:00,67.4,63.4,29.85,South,191,1.0,3.0,87,0.00,,,0.00,51.00,VWS V14.01,2013-04-19 12:15:00,
2013-04-19 08:20:00,67.4,63.4,29.85,SW,226,0.0,1.0,87,0.00,,,0.00,42.00,VWS V14.01,2013-04-19 12:20:00,
2013-04-19 08:25:00,67.5,63.5,29.85,SE,145,4.0,5.0,87,0.00,,,0.00,39.00,VWS V14.01,2013-04-19 12:25:00,
2013-04-19 08:30:00,67.5,63.5,29.85,SE,136,3.0,10.0,87,0.00,,,0.00,47.00,VWS V14.01,2013-04-19 12:30:00,
2013-04-19 08:35:00,67.6,63.6,29.85,SE,146,7.0,7.0,87,0.00,,,0.00,30.00,VWS V14.01,2013-04-19 12:35:00,
2013-04-19 08:40:00,67.6,63.6,29.85,SSW,202,2.0,2.0,87,0.00,,,0.00,30.00,VWS V14.01,2013-04-19 12:40:00,
2013-04-19 08:45:00,67.7,63.4,29.85,SE,138,3.0,6.0,86,0.00,,,0.00,23.00,VWS V14.01,2013-04-19 12:45:00,
2013-04-19 08:50:00,67.7,63.4,29.85,SSE,161,4.0,4.0,86,0.00,,,0.00,33.00,VWS V14.01,2013-04-19 12:50:00,
2013-04-19 08:55:00,67.7,63.4,29.85,SSW,198,1.0,2.0,86,0.00,,,0.00,56.00,VWS V14.01,2013-04-19 12:55:00,
2013-04-19 09:00:00,67.8,63.8,29.85,ESE,121,5.0,9.0,87,0.00,,,0.00,83.00,VWS V14.01,2013-04-19 13:00:00,
2013-04-19 09:05:00,67.9,63.9,29.85,SSW,194,0.0,9.0,87,0.00,,,0.00,105.00,VWS V14.01,2013-04-19 13:05:00,
2013-04-19 09:10:00,68.1,63.8,29.85,SE,144,3.0,3.0,86,0.00,,,0.00,134.00,VWS V14.01,2013-04-19 13:10:00,
2013-04-19 09:15:00,68.3,64.3,29.85,ESE,115,7.0,7.0,87,0.00,,,0.00,156.00,VWS V14.01,2013-04-19 13:15:00,
2013-04-19 09:20:00,68.5,64.2,29.85,ESE,111,3.0,4.0,86,0.00,,,0.00,132.00,VWS V14.01,2013-04-19 13:20:00,
2013-04-19 09:25:00,68.7,64.0,29.85,SSW,196,2.0,11.0,85,0.00,,,0.00,86.00,VWS V14.01,2013-04-19 13:25:00,
2013-04-19 09:30:00,68.8,64.1,29.85,NE,36,1.0,4.0,85,0.00,,,0.00,204.00,VWS V14.01,2013-04-19 13:30:00,
2013-04-19 09:35:00,69.0,64.3,29.85,SW,215,1.0,3.0,85,0.00,,,0.00,113.00,VWS V14.01,2013-04-19 13:35:00,
2013-04-19 09:40:00,69.2,64.5,29.84,SW,219,1.0,7.0,85,0.00,,,0.00,183.00,VWS V14.01,2013-04-19 13:40:00,
2013-04-19 09:45:00,69.4,64.7,29.84,SE,142,1.0,6.0,85,0.00,,,0.00,181.00,VWS V14.01,2013-04-19 13:45:00,
2013-04-19 09:50:00,69.6,64.6,29.84,SSE,167,1.0,4.0,84,0.00,,,0.00,107.00,VWS V14.01,2013-04-19 13:50:00,
2013-04-19 09:55:00,69.7,64.7,29.84,ESE,118,3.0,4.0,84,0.00,,,0.00,139.00,VWS V14.01,2013-04-19 13:55:00,
2013-04-19 10:00:00,69.9,64.8,29.83,SSE,168,0.0,2.0,84,0.00,,,0.00,248.00,VWS V14.01,2013-04-19 14:00:00,
2013-04-19 10:05:00,70.2,65.1,29.82,ESE,118,0.0,8.0,84,0.00,,,0.00,251.00,VWS V14.01,2013-04-19 14:05:00,
2013-04-19 10:10:00,70.4,65.0,29.81,SW,214,0.0,2.0,83,0.00,,,0.00,223.00,VWS V14.01,2013-04-19 14:10:00,
2013-04-19 10:15:00,70.6,65.2,29.82,East,84,2.0,3.0,83,0.00,,,0.00,178.00,VWS V14.01,2013-04-19 14:15:00,
2013-04-19 10:20:00,70.7,64.9,29.83,SSE,155,5.0,8.0,82,0.00,,,0.00,127.00,VWS V14.01,2013-04-19 14:20:00,
2013-04-19 10:25:00,70.7,64.9,29.82,South,169,3.0,9.0,82,0.00,,,0.00,200.00,VWS V14.01,2013-04-19 14:25:00,
2013-04-19 10:30:00,70.7,64.9,29.82,East,92,1.0,5.0,82,0.00,,,0.00,158.00,VWS V14.01,2013-04-19 14:30:00,
2013-04-19 10:35:00,70.8,65.0,29.82,SSW,192,2.0,6.0,82,0.00,,,0.00,223.00,VWS V14.01,2013-04-19 14:35:00,
2013-04-19 10:40:00,71.1,65.3,29.82,South,182,4.0,7.0,82,0.00,,,0.00,258.00,VWS V14.01,2013-04-19 14:40:00,
2013-04-19 10:45:00,71.3,65.5,29.83,WSW,257,0.0,2.0,82,0.00,,,0.00,163.00,VWS V14.01,2013-04-19 14:45:00,
2013-04-19 10:50:00,71.4,65.3,29.82,SSE,152,1.0,5.0,81,0.00,,,0.00,72.00,VWS V14.01,2013-04-19 14:50:00,
2013-04-19 10:55:00,71.4,65.3,29.82,WSW,257,0.0,2.0,81,0.00,,,0.00,58.00,VWS V14.01,2013-04-19 14:55:00,
2013-04-19 11:00:00,71.3,65.5,29.82,South,185,2.0,5.0,82,0.00,,,0.00,56.00,VWS V14.01,2013-04-19 15:00:00,
2013-04-19 11:05:00,71.3,65.5,29.82,SSW,210,1.0,4.0,82,0.00,,,0.00,77.00,VWS V14.01,2013-04-19 15:05:00,
2013-04-19 11:10:00,71.2,65.4,29.82,SSE,159,1.0,2.0,82,0.00,,,0.00,107.00,VWS V14.01,2013-04-19 15:10:00,
2013-04-19 11:15:00,71.2,65.4,29.81,SE,142,2.0,4.0,82,0.00,,,0.00,183.00,VWS V14.01,2013-04-19 15:15:00,
2013-04-19 11:20:00,71.4,65.6,29.80,SE,128,1.0,5.0,82,0.00,,,0.00,135.00,VWS V14.01,2013-04-19 15:20:00,
2013-04-19 11:25:00,71.5,65.7,29.80,South,174,1.0,3.0,82,0.00,,,0.00,109.00,VWS V14.01,2013-04-19 15:25:00,
2013-04-19 11:30:00,71.6,65.8,29.80,SSW,194,2.0,3.0,82,0.00,,,0.00,54.00,VWS V14.01,2013-04-19 15:30:00,
2013-04-19 11:35:00,71.7,65.9,29.81,NNW,340,5.0,5.0,82,0.00,,,0.00,139.00,VWS V14.01,2013-04-19 15:35:00,
2013-04-19 11:40:00,71.7,65.6,29.80,SE,127,1.0,4.0,81,0.00,,,0.00,248.00,VWS V14.01,2013-04-19 15:40:00,
2013-04-19 11:45:00,71.9,65.8,29.80,SE,138,2.0,3.0,81,0.00,,,0.00,209.00,VWS V14.01,2013-04-19 15:45:00,
2013-04-19 11:50:00,72.2,66.4,29.80,ESE,109,2.0,3.0,82,0.00,,,0.00,192.00,VWS V14.01,2013-04-19 15:50:00,
2013-04-19 11:55:00,72.5,66.3,29.80,SSE,162,3.0,4.0,81,0.00,,,0.00,221.00,VWS V14.01,2013-04-19 15:55:00,
2013-04-19 12:00:00,72.7,66.2,29.80,SSW,200,2.0,5.0,80,0.00,,,0.00,120.00,VWS V14.01,2013-04-19 16:00:00,
2013-04-19 12:05:00,72.8,66.3,29.79,SE,140,2.0,7.0,80,0.00,,,0.00,44.00,VWS V14.01,2013-04-19 16:05:00,
2013-04-19 12:10:00,72.8,65.9,29.77,SSE,153,0.0,6.0,79,0.00,,,0.00,162.00,VWS V14.01,2013-04-19 16:10:00,
2013-04-19 12:15:00,72.8,66.3,29.77,SSE,148,5.0,7.0,80,0.00,,,0.00,213.00,VWS V14.01,2013-04-19 16:15:00,
2013-04-19 12:20:00,73.0,66.5,29.76,South,176,3.0,4.0,80,0.00,,,0.00,299.00,VWS V14.01,2013-04-19 16:20:00,
2013-04-19 12:25:00,73.4,66.5,29.76,ESE,115,3.0,10.0,79,0.00,,,0.00,322.00,VWS V14.01,2013-04-19 16:25:00,
2013-04-19 12:30:00,73.8,66.5,29.76,SE,138,7.0,8.0,78,0.00,,,0.00,285.00,VWS V14.01,2013-04-19 16:30:00,
2013-04-19 12:35:00,74.1,66.4,29.76,South,172,6.0,9.0,77,0.00,,,0.00,241.00,VWS V14.01,2013-04-19 16:35:00,
2013-04-19 12:40:00,74.3,66.6,29.76,South,177,3.0,4.0,77,0.00,,,0.00,246.00,VWS V14.01,2013-04-19 16:40:00,
2013-04-19 12:45:00,74.4,67.1,29.76,SSE,168,2.0,3.0,78,0.00,,,0.00,144.00,VWS V14.01,2013-04-19 16:45:00,
2013-04-19 12:50:00,74.4,66.7,29.76,SSE,155,3.0,7.0,77,0.00,,,0.00,158.00,VWS V14.01,2013-04-19 16:50:00,
2013-04-19 12:55:00,74.3,66.6,29.75,WSW,244,4.0,6.0,77,0.00,,,0.00,171.00,VWS V14.01,2013-04-19 16:55:00,
2013-04-19 13:00:00,74.3,66.6,29.75,SSW,196,1.0,2.0,77,0.00,,,0.00,100.00,VWS V14.01,2013-04-19 17:00:00,
2013-04-19 13:05:00,74.3,66.6,29.75,ENE,71,2.0,7.0,77,0.00,,,0.00,113.00,VWS V14.01,2013-04-19 17:05:00,
2013-04-19 13:10:00,74.2,66.2,29.74,South,175,3.0,11.0,76,0.00,,,0.00,109.00,VWS V14.01,2013-04-19 17:10:00,
2013-04-19 13:15:00,74.2,66.5,29.74,South,188,3.0,3.0,77,0.00,,,0.00,91.00,VWS V14.01,2013-04-19 17:15:00,
2013-04-19 13:20:00,74.2,66.5,29.74,South,169,1.0,3.0,77,0.00,,,0.00,84.00,VWS V14.01,2013-04-19 17:20:00,
2013-04-19 13:25:00,74.3,66.6,29.73,SSE,163,3.0,5.0,77,0.00,,,0.00,123.00,VWS V14.01,2013-04-19 17:25:00,
2013-04-19 13:30:00,74.3,66.2,29.73,SSW,198,3.0,5.0,76,0.00,,,0.00,93.00,VWS V14.01,2013-04-19 17:30:00,
2013-04-19 13:35:00,74.4,66.7,29.73,SSE,148,3.0,6.0,77,0.00,,,0.00,149.00,VWS V14.01,2013-04-19 17:35:00,
2013-04-19 13:40:00,74.5,66.8,29.72,SE,135,2.0,5.0,77,0.00,,,0.00,135.00,VWS V14.01,2013-04-19 17:40:00,
2013-04-19 13:45:00,74.6,66.9,29.72,SSE,164,1.0,6.0,77,0.00,,,0.00,105.00,VWS V14.01,2013-04-19 17:45:00,
2013-04-19 13:50:00,74.6,66.9,29.72,SSE,150,3.0,4.0,77,0.00,,,0.00,158.00,VWS V14.01,2013-04-19 17:50:00,
2013-04-19 13:55:00,74.8,67.1,29.72,South,182,6.0,8.0,77,0.00,,,0.00,341.00,VWS V14.01,2013-04-19 17:55:00,
2013-04-19 14:00:00,75.0,66.9,29.71,South,186,4.0,7.0,76,0.00,,,0.00,176.00,VWS V14.01,2013-04-19 18:00:00,
2013-04-19 14:05:00,75.3,67.6,29.71,SSW,192,3.0,5.0,77,0.00,,,0.00,149.00,VWS V14.01,2013-04-19 18:05:00,
2013-04-19 14:10:00,75.4,67.3,29.71,SE,132,4.0,7.0,76,0.00,,,0.00,176.00,VWS V14.01,2013-04-19 18:10:00,
2013-04-19 14:15:00,75.6,67.5,29.71,WSW,257,2.0,4.0,76,0.00,,,0.00,167.00,VWS V14.01,2013-04-19 18:15:00,
2013-04-19 14:20:00,75.7,67.2,29.70,SE,132,1.0,4.0,75,0.00,,,0.00,207.00,VWS V14.01,2013-04-19 18:20:00,
2013-04-19 14:25:00,75.9,67.4,29.70,South,180,3.0,8.0,75,0.00,,,0.00,211.00,VWS V14.01,2013-04-19 18:25:00,
2013-04-19 14:30:00,76.0,67.5,29.70,SSE,165,6.0,6.0,75,0.00,,,0.00,229.00,VWS V14.01,2013-04-19 18:30:00,
2013-04-19 14:35:00,76.2,67.7,29.70,SE,133,4.0,5.0,75,0.00,,,0.00,144.00,VWS V14.01,2013-04-19 18:35:00,
2013-04-19 14:40:00,76.3,67.8,29.70,SSE,163,3.0,4.0,75,0.00,,,0.00,97.00,VWS V14.01,2013-04-19 18:40:00,
2013-04-19 14:45:00,76.3,67.8,29.69,SSW,195,2.0,5.0,75,0.00,,,0.00,141.00,VWS V14.01,2013-04-19 18:45:00,
2013-04-19 14:50:00,76.4,67.9,29.69,SSW,208,5.0,8.0,75,0.00,,,0.00,179.00,VWS V14.01,2013-04-19 18:50:00,
2013-04-19 14:55:00,76.5,67.6,29.69,SSE,162,1.0,3.0,74,0.00,,,0.00,95.00,VWS V14.01,2013-04-19 18:55:00,
2013-04-19 15:00:00,76.6,67.3,29.69,SSE,156,6.0,8.0,73,0.00,,,0.00,155.00,VWS V14.01,2013-04-19 19:00:00,
2013-04-19 15:05:00,76.7,67.4,29.69,SE,138,7.0,9.0,73,0.00,,,0.00,51.00,VWS V14.01,2013-04-19 19:05:00,
2013-04-19 15:10:00,76.5,68.4,29.69,SSE,148,3.0,6.0,76,0.01,,,0.01,181.00,VWS V14.01,2013-04-19 19:10:00,
2013-04-19 15:15:00,76.0,68.3,29.69,SE,131,4.0,4.0,77,0.01,,,0.01,151.00,VWS V14.01,2013-04-19 19:15:00,
2013-04-19 15:20:00,75.8,68.1,29.69,SSE,156,3.0,6.0,77,0.01,,,0.01,149.00,VWS V14.01,2013-04-19 19:20:00,
2013-04-19 15:25:00,75.7,67.6,29.69,SSW,202,3.0,8.0,76,0.01,,,0.01,84.00,VWS V14.01,2013-04-19 19:25:00,
2013-04-19 15:30:00,75.6,67.9,29.69,South,182,3.0,5.0,77,0.01,,,0.01,63.00,VWS V14.01,2013-04-19 19:30:00,
2013-04-19 15:35:00,75.4,68.1,29.70,SE,126,5.0,9.0,78,0.02,,,0.02,42.00,VWS V14.01,2013-04-19 19:35:00,
2013-04-19 15:40:00,73.9,67.7,29.70,WNW,286,3.0,9.0,81,0.12,,,0.12,109.00,VWS V14.01,2013-04-19 19:40:00,
2013-04-19 15:45:00,72.7,67.2,29.70,NNW,346,0.0,4.0,83,0.12,,,0.12,134.00,VWS V14.01,2013-04-19 19:45:00,
2013-04-19 15:50:00,72.1,67.3,29.70,West,271,3.0,3.0,85,0.12,,,0.12,72.00,VWS V14.01,2013-04-19 19:50:00,
2013-04-19 15:55:00,71.8,67.4,29.71,SW,234,0.0,3.0,86,0.12,,,0.12,25.00,VWS V14.01,2013-04-19 19:55:00,
2013-04-19 16:00:00,70.4,64.3,29.74,WNW,290,11.0,11.0,81,0.13,,,0.13,7.00,VWS V14.01,2013-04-19 20:00:00,
2013-04-19 16:05:00,68.3,63.3,29.74,WSW,250,16.0,16.0,84,0.23,,,0.23,16.00,VWS V14.01,2013-04-19 20:05:00,
2013-04-19 16:10:00,66.6,62.9,29.72,West,261,6.0,10.0,88,0.29,,,0.29,23.00,VWS V14.01,2013-04-19 20:10:00,
2013-04-19 16:15:00,66.1,63.1,29.72,West,268,2.0,4.0,90,0.30,,,0.31,30.00,VWS V14.01,2013-04-19 20:15:00,
2013-04-19 16:20:00,65.8,63.1,29.71,SSW,209,3.0,3.0,91,0.30,,,0.31,54.00,VWS V14.01,2013-04-19 20:20:00,
2013-04-19 16:25:00,65.6,63.2,29.71,SE,142,0.0,2.0,92,0.30,,,0.31,62.00,VWS V14.01,2013-04-19 20:25:00,
2013-04-19 16:30:00,65.6,63.5,29.71,WSW,244,1.0,4.0,93,0.30,,,0.31,77.00,VWS V14.01,2013-04-19 20:30:00,
2013-04-19 16:35:00,65.7,63.6,29.71,WSW,256,0.0,2.0,93,0.29,,,0.31,123.00,VWS V14.01,2013-04-19 20:35:00,
2013-04-19 16:40:00,65.8,64.0,29.71,South,190,3.0,6.0,94,0.19,,,0.31,107.00,VWS V14.01,2013-04-19 20:40:00,
2013-04-19 16:45:00,65.9,64.1,29.70,WSW,249,2.0,3.0,94,0.19,,,0.31,104.00,VWS V14.01,2013-04-19 20:45:00,
2013-04-19 16:50:00,66.1,64.3,29.70,West,269,0.0,2.0,94,0.19,,,0.31,76.00,VWS V14.01,2013-04-19 20:50:00,
2013-04-19 16:55:00,66.3,64.8,29.70,West,261,2.0,3.0,95,0.19,,,0.31,44.00,VWS V14.01,2013-04-19 20:55:00,
2013-04-19 17:00:00,66.4,64.9,29.70,ESE,106,1.0,1.0,95,0.19,,,0.32,56.00,VWS V14.01,2013-04-19 21:00:00,
2013-04-19 17:05:00,66.5,65.0,29.71,ESE,115,0.0,0.0,95,0.11,,,0.32,35.00,VWS V14.01,2013-04-19 21:05:00,
2013-04-19 17:10:00,66.6,65.1,29.71,SSE,162,0.0,0.0,95,0.05,,,0.34,18.00,VWS V14.01,2013-04-19 21:10:00,
2013-04-19 17:15:00,66.7,65.2,29.71,West,275,5.0,6.0,95,0.06,,,0.37,19.00,VWS V14.01,2013-04-19 21:15:00,
2013-04-19 17:20:00,66.7,65.2,29.71,SE,144,0.0,1.0,95,0.08,,,0.39,26.00,VWS V14.01,2013-04-19 21:20:00,
2013-04-19 17:25:00,66.7,65.2,29.72,South,180,1.0,3.0,95,0.10,,,0.41,18.00,VWS V14.01,2013-04-19 21:25:00,
2013-04-19 17:30:00,66.8,65.3,29.72,ESE,111,1.0,1.0,95,0.11,,,0.42,28.00,VWS V14.01,2013-04-19 21:30:00,
2013-04-19 17:35:00,66.8,65.3,29.72,SE,140,7.0,7.0,95,0.12,,,0.43,30.00,VWS V14.01,2013-04-19 21:35:00,
2013-04-19 17:40:00,66.8,65.3,29.71,SSW,210,3.0,3.0,95,0.13,,,0.44,47.00,VWS V14.01,2013-04-19 21:40:00,
2013-04-19 17:45:00,66.8,65.3,29.71,SW,226,4.0,5.0,95,0.13,,,0.44,28.00,VWS V14.01,2013-04-19 21:45:00,
2013-04-19 17:50:00,66.8,65.3,29.72,SE,140,1.0,4.0,95,0.13,,,0.44,25.00,VWS V14.01,2013-04-19 21:50:00,
2013-04-19 17:55:00,66.7,65.2,29.72,West,275,1.0,5.0,95,0.14,,,0.45,33.00,VWS V14.01,2013-04-19 21:55:00,
2013-04-19 18:00:00,66.7,65.2,29.71,SE,145,6.0,6.0,95,0.13,,,0.45,33.00,VWS V14.01,2013-04-19 22:00:00,
2013-04-19 18:05:00,66.7,65.2,29.71,WNW,294,2.0,2.0,95,0.13,,,0.45,32.00,VWS V14.01,2013-04-19 22:05:00,
2013-04-19 18:10:00,66.7,65.2,29.71,East,96,2.0,5.0,95,0.11,,,0.45,26.00,VWS V14.01,2013-04-19 22:10:00,
2013-04-19 18:15:00,66.7,65.2,29.70,WNW,288,0.0,2.0,95,0.08,,,0.45,23.00,VWS V14.01,2013-04-19 22:15:00,
2013-04-19 18:20:00,66.6,65.1,29.69,SE,130,1.0,2.0,95,0.06,,,0.45,23.00,VWS V14.01,2013-04-19 22:20:00,
2013-04-19 18:25:00,66.6,65.1,29.69,WSW,258,0.0,1.0,95,0.04,,,0.45,21.00,VWS V14.01,2013-04-19 22:25:00,
2013-04-19 18:30:00,66.5,65.0,29.70,SE,130,0.0,1.0,95,0.03,,,0.45,35.00,VWS V14.01,2013-04-19 22:30:00,
2013-04-19 18:35:00,66.4,64.9,29.69,ENE,74,1.0,2.0,95,0.02,,,0.45,30.00,VWS V14.01,2013-04-19 22:35:00,
2013-04-19 18:40:00,66.3,64.8,29.69,NE,44,0.0,2.0,95,0.02,,,0.45,35.00,VWS V14.01,2013-04-19 22:40:00,
2013-04-19 18:45:00,66.2,64.4,29.69,SSE,161,4.0,4.0,94,0.01,,,0.45,33.00,VWS V14.01,2013-04-19 22:45:00,
2013-04-19 18:50:00,66.2,64.4,29.69,SW,232,0.0,1.0,94,0.01,,,0.45,25.00,VWS V14.01,2013-04-19 22:50:00,
2013-04-19 18:55:00,66.1,64.3,29.69,SSE,159,2.0,4.0,94,0.00,,,0.45,16.00,VWS V14.01,2013-04-19 22:55:00,
2013-04-19 19:00:00,65.9,64.1,29.68,SSE,153,3.0,3.0,94,0.00,,,0.45,12.00,VWS V14.01,2013-04-19 23:00:00,
2013-04-19 19:05:00,65.8,64.0,29.69,South,184,3.0,3.0,94,0.00,,,0.45,7.00,VWS V14.01,2013-04-19 23:05:00,
2013-04-19 19:10:00,65.7,63.9,29.68,SSE,155,1.0,3.0,94,0.00,,,0.45,5.00,VWS V14.01,2013-04-19 23:10:00,
2013-04-19 19:15:00,65.7,63.9,29.70,South,191,0.0,3.0,94,0.01,,,0.46,0.00,VWS V14.01,2013-04-19 23:15:00,
2013-04-19 19:20:00,65.7,64.2,29.69,SSE,157,3.0,5.0,95,0.02,,,0.47,0.00,VWS V14.01,2013-04-19 23:20:00,
2013-04-19 19:25:00,65.5,64.0,29.68,SSE,156,2.0,3.0,95,0.02,,,0.47,5.00,VWS V14.01,2013-04-19 23:25:00,
2013-04-19 19:30:00,65.4,63.6,29.69,ESE,107,0.0,1.0,94,0.03,,,0.48,5.00,VWS V14.01,2013-04-19 23:30:00,
2013-04-19 19:35:00,65.2,63.4,29.69,South,175,3.0,4.0,94,0.03,,,0.48,0.00,VWS V14.01,2013-04-19 23:35:00,
2013-04-19 19:40:00,65.0,63.2,29.69,South,184,3.0,3.0,94,0.03,,,0.48,0.00,VWS V14.01,2013-04-19 23:40:00,
2013-04-19 19:45:00,64.9,63.1,29.71,SSW,193,0.0,4.0,94,0.03,,,0.48,0.00,VWS V14.01,2013-04-19 23:45:00,
2013-04-19 19:50:00,64.8,63.0,29.71,South,184,0.0,1.0,94,0.03,,,0.48,0.00,VWS V14.01,2013-04-19 23:50:00,
2013-04-19 19:55:00,64.7,62.9,29.71,SSE,161,4.0,10.0,94,0.03,,,0.48,0.00,VWS V14.01,2013-04-19 23:55:00,
2013-04-19 20:00:00,64.6,62.8,29.71,NW,324,4.0,5.0,94,0.03,,,0.48,0.00,VWS V14.01,2013-04-20 00:00:00,
2013-04-19 20:05:00,64.5,62.7,29.71,SSE,160,2.0,7.0,94,0.04,,,0.49,0.00,VWS V14.01,2013-04-20 00:05:00,
2013-04-19 20:10:00,64.4,62.6,29.71,West,281,2.0,4.0,94,0.04,,,0.49,0.00,VWS V14.01,2013-04-20 00:10:00,
2013-04-19 20:15:00,64.3,62.5,29.72,West,277,0.0,2.0,94,0.03,,,0.49,0.00,VWS V14.01,2013-04-20 00:15:00,
2013-04-19 20:20:00,64.3,62.5,29.71,SE,143,2.0,3.0,94,0.02,,,0.49,0.00,VWS V14.01,2013-04-20 00:20:00,
2013-04-19 20:25:00,64.2,62.4,29.71,SE,130,0.0,0.0,94,0.02,,,0.49,0.00,VWS V14.01,2013-04-20 00:25:00,
2013-04-19 20:30:00,64.2,62.4,29.72,SE,130,0.0,1.0,94,0.01,,,0.49,0.00,VWS V14.01,2013-04-20 00:30:00,
2013-04-19 20:35:00,64.2,62.4,29.73,SE,130,0.0,0.0,94,0.01,,,0.49,0.00,VWS V14.01,2013-04-20 00:35:00,
2013-04-19 20:40:00,64.1,62.6,29.72,SE,130,1.0,1.0,95,0.01,,,0.49,0.00,VWS V14.01,2013-04-20 00:40:00,
2013-04-19 20:45:00,64.1,62.6,29.73,ESE,108,2.0,2.0,95,0.01,,,0.49,0.00,VWS V14.01,2013-04-20 00:45:00,
2013-04-19 20:50:00,64.1,62.6,29.73,SE,143,0.0,0.0,95,0.01,,,0.49,0.00,VWS V14.01,2013-04-20 00:50:00,
2013-04-19 20:55:00,64.1,62.6,29.74,WSW,238,0.0,2.0,95,0.02,,,0.50,0.00,VWS V14.01,2013-04-20 00:55:00,
2013-04-19 21:00:00,64.0,62.5,29.74,WSW,240,3.0,5.0,95,0.02,,,0.50,0.00,VWS V14.01,2013-04-20 01:00:00,
2013-04-19 21:05:00,63.8,62.0,29.75,East,85,2.0,2.0,94,0.01,,,0.50,0.00,VWS V14.01,2013-04-20 01:05:00,
2013-04-19 21:10:00,63.7,62.0,29.75,South,189,4.0,5.0,94,0.01,,,0.50,0.00,VWS V14.01,2013-04-20 01:10:00,
2013-04-19 21:15:00,63.5,61.8,29.74,SSW,210,0.0,3.0,94,0.01,,,0.50,0.00,VWS V14.01,2013-04-20 01:15:00,
2013-04-19 21:20:00,63.4,61.3,29.75,WNW,284,1.0,1.0,93,0.01,,,0.50,0.00,VWS V14.01,2013-04-20 01:20:00,
2013-04-19 21:25:00,63.3,61.2,29.75,South,183,2.0,6.0,93,0.01,,,0.50,0.00,VWS V14.01,2013-04-20 01:25:00,
2013-04-19 21:30:00,63.1,61.0,29.76,West,264,2.0,3.0,93,0.01,,,0.50,0.00,VWS V14.01,2013-04-20 01:30:00,
2013-04-19 21:35:00,63.0,60.6,29.77,SW,217,1.0,3.0,92,0.01,,,0.50,0.00,VWS V14.01,2013-04-20 01:35:00,
2013-04-19 21:40:00,62.9,60.5,29.77,WSW,240,2.0,2.0,92,0.01,,,0.50,0.00,VWS V14.01,2013-04-20 01:40:00,
2013-04-19 21:45:00,62.9,60.5,29.78,WSW,254,4.0,6.0,92,0.01,,,0.50,0.00,VWS V14.01,2013-04-20 01:45:00,
2013-04-19 21:50:00,62.8,60.5,29.78,SSW,195,5.0,5.0,92,0.01,,,0.50,0.00,VWS V14.01,2013-04-20 01:50:00,
2013-04-19 21:55:00,62.8,60.5,29.78,SW,217,1.0,2.0,92,0.00,,,0.50,0.00,VWS V14.01,2013-04-20 01:55:00,
2013-04-19 22:00:00,62.6,59.9,29.78,NW,309,0.0,2.0,91,0.00,,,0.50,0.00,VWS V14.01,2013-04-20 02:00:00,
2013-04-19 22:05:00,62.4,59.4,29.78,SW,231,0.0,0.0,90,0.00,,,0.50,0.00,VWS V14.01,2013-04-20 02:05:00,
2013-04-19 22:10:00,62.1,58.5,29.79,WSW,246,2.0,5.0,88,0.00,,,0.50,0.00,VWS V14.01,2013-04-20 02:10:00,
2013-04-19 22:15:00,61.8,58.2,29.79,NNW,336,3.0,3.0,88,0.00,,,0.50,0.00,VWS V14.01,2013-04-20 02:15:00,
2013-04-19 22:20:00,61.4,56.9,29.79,South,184,3.0,3.0,85,0.00,,,0.50,0.00,VWS V14.01,2013-04-20 02:20:00,
2013-04-19 22:25:00,60.9,55.4,29.80,West,270,0.0,0.0,82,0.00,,,0.50,0.00,VWS V14.01,2013-04-20 02:25:00,
2013-04-19 22:30:00,60.4,54.5,29.80,WSW,252,1.0,2.0,81,0.00,,,0.50,0.00,VWS V14.01,2013-04-20 02:30:00,
2013-04-19 22:35:00,60.0,54.2,29.80,SW,232,0.0,0.0,81,0.00,,,0.50,0.00,VWS V14.01,2013-04-20 02:35:00,
2013-04-19 22:40:00,59.6,53.8,29.81,SW,221,1.0,1.0,81,0.00,,,0.50,0.00,VWS V14.01,2013-04-20 02:40:00,
2013-04-19 22:45:00,59.3,53.5,29.80,WSW,241,0.0,0.0,81,0.00,,,0.50,0.00,VWS V14.01,2013-04-20 02:45:00,
2013-04-19 22:50:00,58.9,52.4,29.81,West,275,0.0,1.0,79,0.00,,,0.50,0.00,VWS V14.01,2013-04-20 02:50:00,
2013-04-19 22:55:00,58.7,52.6,29.81,WSW,256,0.0,2.0,80,0.00,,,0.50,0.00,VWS V14.01,2013-04-20 02:55:00,
2013-04-19 23:00:00,58.4,51.6,29.82,West,259,2.0,2.0,78,0.00,,,0.50,0.00,VWS V14.01,2013-04-20 03:00:00,
2013-04-19 23:05:00,58.1,50.6,29.81,North,360,1.0,5.0,76,0.00,,,0.50,0.00,VWS V14.01,2013-04-20 03:05:00,
2013-04-19 23:10:00,57.8,49.9,29.82,NNW,348,0.0,2.0,75,0.00,,,0.50,0.00,VWS V14.01,2013-04-20 03:10:00,
2013-04-19 23:15:00,57.6,49.4,29.82,NNE,23,2.0,3.0,74,0.00,,,0.50,0.00,VWS V14.01,2013-04-20 03:15:00,
2013-04-19 23:20:00,57.4,49.2,29.82,SW,230,3.0,4.0,74,0.00,,,0.50,0.00,VWS V14.01,2013-04-20 03:20:00,
2013-04-19 23:25:00,57.2,49.0,29.83,SW,232,0.0,1.0,74,0.00,,,0.50,0.00,VWS V14.01,2013-04-20 03:25:00,
2013-04-19 23:30:00,57.1,48.9,29.84,SW,225,1.0,1.0,74,0.00,,,0.50,0.00,VWS V14.01,2013-04-20 03:30:00,
2013-04-19 23:35:00,56.9,48.3,29.84,WSW,252,0.0,0.0,73,0.00,,,0.50,0.00,VWS V14.01,2013-04-20 03:35:00,
2013-04-19 23:40:00,56.7,47.4,29.84,SW,225,4.0,4.0,71,0.00,,,0.50,0.00,VWS V14.01,2013-04-20 03:40:00,
2013-04-19 23:45:00,56.6,48.1,29.85,SW,232,1.0,1.0,73,0.00,,,0.50,0.00,VWS V14.01,2013-04-20 03:45:00,
2013-04-19 23:50:00,56.5,47.2,29.85,NNW,333,0.0,1.0,71,0.00,,,0.50,0.00,VWS V14.01,2013-04-20 03:50:00,
2013-04-19 23:55:00,56.4,47.1,29.85,WSW,243,2.0,3.0,71,0.00,,,0.50,0.00,VWS V14.01,2013-04-20 03:55:00,